Sheridan, IL (60551)

8:09 AM CST on January 20, 2017 (GMT -0600)
Weather at Chuck and Pats | | Change Station
Active Advisory: Flood Warning, Flood Advisory Active Notice: Public Information Statement

Elev 645 ft 41.51 °N, 88.74 °W | Updated 2 seconds ago

Overcast
Overcast
38.2 °F
Feels Like 38 °F
N
0.0
Wind Variable Wind from NE
Gusts 3.5 mph

Today
High -- | Low -- °F
--% Chance of Precip.
Yesterday
High -- | Low -- °F
Precip. -- in
Pressure 29.62 in
Visibility 0.8 miles
Clouds Overcast 600 ft
Windchill 38 °F
Dew Point 37 °F
Humidity 97%
Rainfall 0.00 in
Snow Depth Not available.
7:16 AM 4:56 PM
Last Quarter, 44% visible
METAR KC09 201355Z AUTO 00000KT 3/4SM BR OVC006 02/02 A2962 RMK AO2 T00220019
Pressure 29.62 in
Visibility 0.8 miles
Clouds Overcast 600 ft
Windchill 38 °F
Dew Point 37 °F
Humidity 97%
Rainfall 0.00 in
Snow Depth Not available.
7:16 AM 4:56 PM
Last Quarter, 44% visible
METAR KC09 201355Z AUTO 00000KT 3/4SM BR OVC006 02/02 A2962 RMK AO2 T00220019

Get Your Daily Forecast Email!

Thanks for signing up!

Be on the lookout for a verification email in your inbox.

You'll start receiving the daily forecast at 8 AM.

×

10-Day Weather Forecast

Almanac

Astronomy

Jan. 20, 2017 Rise Set
Actual Time
Civil Twilight
Nautical Twilight
Astronomical Twilight
Moon
Length of Visible Light
Length of Day
Tomorrow will be .
, % of the Moon is Illuminated

Today's Extremes

State Highs State Lows

Community

WunderPhotos

Upload Photos

1,962,540 photos uploaded!

WunderBlog® & News

Nearby

Air Quality

  Air Quality AQ Index Pollutant
Not available.

Snow Depth

Station Depth Elevation

Earthquake Activity

City Distance Mag. Time & Date
Minimum magnitude displayed is 2.5.

Coastal Water Temperatures

Place Temperature

Stations

Nearby Weather Stations

Station Location Temp. Windchill Dew Point Humidity Wind Precip. Elev Updated Type
                   

Watches & Warnings

Flood Warning
Issued: 8:26 PM CST Jan. 19, 2017 – National Weather Service

The Flood Warning continues for
the Illinois River at La Salle.
* Until Sunday evening.
* At 745 PM Thursday the stage was 19.8 feet.
* Flood stage is 20.0 feet.
* Minor flooding is forecast.
* Forecast... rise above flood stage by Saturday morning and continue
to rise to near 20.4 feet by Saturday evening.
* Impact... at 20.0 feet... agricultural areas in La Salle, Spring
Valley, and Peru lowlands are flooded.


Lat... Lon 4137 8896 4135 8929 4126 8930 4128 8896





Flood Advisory
Issued: 8:34 PM CST Jan. 19, 2017 – National Weather Service

The Flood Advisory continues for
the Illinois River at Ottawa
* until Monday afternoon.
* At 730 PM Thursday the stage was 460.8 feet.
* Action stage is 461.0 feet.
* Flood stage is 463.0 feet.
* Forecast... the river will rise to near 461.8 feet by Saturday
evening.


Lat... Lon 4135 8868 4137 8896 4128 8897 4127 8867